Presque Isle, WI (54557)

5:24 AM CDT on July 23, 2016 (GMT -0500)
Armour Lake West Shore | | Change Station

Elev 1670 ft 46.22 °N, 89.72 °W | Updated 25 seconds ago

Mostly Cloudy
Mostly Cloudy
61.0 °F
Feels Like 61.0 °F
N
0.0
Wind Variable Wind from West
Gusts 0.0 mph

Today
High -- | Low -- °F
--% Chance of Precip.
Yesterday
High -- | Low -- °F
Precip. -- in
Pressure 30.04 in
Visibility 2.0 miles
Clouds Mostly Cloudy 200 ft
Dew Point 59 °F
Humidity 94%
Rainfall 0.00 in
Snow Depth Not available.
5:31 AM 8:39 PM
Waning Gibbous, 86% visible
METAR KD25 231015Z AUTO 00000KT 2SM BR BKN002 15/15 A3004 RMK AO2 VIS 3/4V5 T01500150
Pressure 30.04 in
Visibility 2.0 miles
Clouds Mostly Cloudy 200 ft
Dew Point 59 °F
Humidity 94%
Rainfall 0.00 in
Snow Depth Not available.
5:31 AM 8:39 PM
Waning Gibbous, 86% visible
METAR KD25 231015Z AUTO 00000KT 2SM BR BKN002 15/15 A3004 RMK AO2 VIS 3/4V5 T01500150

10-Day Weather Forecast

Almanac

Astronomy

Jul. 23, 2016 Rise Set
Actual Time
Civil Twilight
Nautical Twilight
Astronomical Twilight
Moon
Length of Visible Light
Length of Day
Tomorrow will be .
, % of the Moon is Illuminated

Today's Extremes

State Highs State Lows

Community

WunderPhotos

Upload Photos

1,926,791 photos uploaded!

WunderBlog® & News

Nearby

Air Quality

  Air Quality AQ Index Pollutant
Not available.

Snow Depth

Station Depth Elevation

Earthquake Activity

City Distance Mag. Time & Date
Minimum magnitude displayed is 2.5.

Coastal Water Temperatures

Place Temperature

Stations

Nearby Weather Stations

Station Location Temp. Windchill Dew Point Humidity Wind Precip. Elev Updated Type
                   

Watches & Warnings

There are currently no watches in effect.